Time;durP1;ratioP1;P1;durP2;ratioP2;P2;SDS_P1;SDS_P2;PMS_P1;PMS_P2;Temp;Humidity;BMP_temperature;BMP_pressure;BME280_temperature;BME280_humidity;BME280_pressure;Samples;Min_cycle;Max_cycle;Signal;HPM_P1;HPM_P2
2020/12/22 00:00:07;;;;;;;9.93;6.83;;;12.00;96.60;;;;;;4841961;29;20414;-79
2020/12/22 00:02:42;;;;;;;9.83;6.70;;;12.10;96.70;;;;;;4825470;29;20038;-78
2020/12/22 00:05:09;;;;;;;9.80;6.80;;;12.00;96.60;;;;;;4837032;29;20563;-81
2020/12/22 00:07:35;;;;;;;8.43;5.93;;;12.10;96.70;;;;;;4818023;29;20635;-78
2020/12/22 00:10:03;;;;;;;8.30;5.70;;;12.10;96.70;;;;;;4840513;29;20049;-78
2020/12/22 00:12:30;;;;;;;9.33;6.00;;;12.10;96.60;;;;;;4841457;29;20049;-77
2020/12/22 00:14:56;;;;;;;7.97;5.50;;;12.20;96.60;;;;;;4810144;29;20456;-77
2020/12/22 00:17:23;;;;;;;8.70;6.13;;;12.20;96.60;;;;;;4841166;29;20046;-76
2020/12/22 00:19:49;;;;;;;9.30;6.63;;;12.20;96.70;;;;;;4823112;29;20046;-79
2020/12/22 00:22:16;;;;;;;10.27;6.87;;;12.20;96.70;;;;;;4809499;29;20110;-77
2020/12/22 00:24:43;;;;;;;10.60;7.17;;;12.20;96.70;;;;;;4840766;29;20038;-78
2020/12/22 00:27:10;;;;;;;9.70;6.80;;;12.30;96.70;;;;;;4794436;29;20571;-79
2020/12/22 00:29:36;;;;;;;10.50;7.20;;;12.30;96.70;;;;;;4840217;29;20130;-80
2020/12/22 00:32:03;;;;;;;10.40;6.57;;;12.30;96.70;;;;;;4825092;29;20816;-78
2020/12/22 00:34:30;;;;;;;10.97;7.10;;;12.40;96.70;;;;;;4837193;29;20110;-77
2020/12/22 00:36:59;;;;;;;10.60;7.30;;;12.40;96.80;;;;;;4837468;29;20098;-78
2020/12/22 00:39:27;;;;;;;9.70;6.30;;;12.40;96.80;;;;;;4827428;29;20079;-77
2020/12/22 00:41:54;;;;;;;9.67;5.70;;;12.50;96.80;;;;;;4810306;29;20099;-76
2020/12/22 00:44:22;;;;;;;8.63;5.83;;;12.50;96.80;;;;;;4839349;29;20045;-77
2020/12/22 00:46:49;;;;;;;8.63;5.80;;;12.50;96.70;;;;;;4829860;29;20499;-77
2020/12/22 00:49:16;;;;;;;8.97;5.77;;;12.50;96.80;;;;;;4841033;29;20056;-75
2020/12/22 00:51:43;;;;;;;8.20;5.33;;;12.50;96.70;;;;;;4806786;29;20050;-76
2020/12/22 00:54:10;;;;;;;7.80;5.90;;;12.50;96.70;;;;;;4834733;29;20045;-75
2020/12/22 00:56:36;;;;;;;9.30;5.93;;;12.60;96.80;;;;;;4841215;29;20507;-76
2020/12/22 00:59:08;;;;;;;9.02;5.82;;;12.60;96.80;;;;;;4810023;29;20158;-75
2020/12/22 01:01:35;;;;;;;8.13;5.60;;;12.60;96.80;;;;;;4822826;29;20050;-77
2020/12/22 01:04:01;;;;;;;8.43;4.83;;;12.70;96.80;;;;;;4839952;29;20127;-77
2020/12/22 01:06:35;;;;;;;10.00;5.53;;;12.70;96.80;;;;;;4809971;29;20491;-76
2020/12/22 01:09:02;;;;;;;7.43;4.83;;;12.70;96.80;;;;;;4840813;29;20054;-77
2020/12/22 01:11:36;;;;;;;7.40;4.63;;;12.70;96.80;;;;;;4817854;29;20074;-77
2020/12/22 01:14:07;;;;;;;9.00;5.73;;;12.70;96.80;;;;;;4824991;29;20434;-77
2020/12/22 01:16:34;;;;;;;8.80;5.40;;;12.80;96.90;;;;;;4826656;29;20477;-76
2020/12/22 01:19:01;;;;;;;8.23;5.53;;;12.80;96.90;;;;;;4809401;29;20038;-76
2020/12/22 01:21:27;;;;;;;6.70;4.43;;;12.80;96.90;;;;;;4831310;29;20081;-77
2020/12/22 01:23:54;;;;;;;8.60;5.73;;;12.80;96.90;;;;;;4842120;29;20054;-76
2020/12/22 01:26:24;;;;;;;6.70;4.13;;;12.90;96.90;;;;;;4840651;29;20107;-76
2020/12/22 01:28:55;;;;;;;7.00;4.43;;;12.90;96.90;;;;;;4844019;29;20050;-76
2020/12/22 01:31:29;;;;;;;7.00;4.57;;;12.90;96.90;;;;;;4827467;29;20050;-78
2020/12/22 01:33:58;;;;;;;7.83;4.77;;;12.90;96.90;;;;;;4827835;29;20050;-77
2020/12/22 01:36:26;;;;;;;6.53;4.53;;;12.90;96.90;;;;;;4831138;29;20124;-78
2020/12/22 01:38:53;;;;;;;7.03;4.17;;;13.00;97.00;;;;;;4842732;29;20114;-75
2020/12/22 01:41:20;;;;;;;6.20;3.80;;;12.90;96.90;;;;;;4811745;29;20038;-74
2020/12/22 01:44:05;;;;;;;7.00;4.17;;;13.00;97.00;;;;;;4841964;29;20098;-73
2020/12/22 01:46:43;;;;;;;6.10;4.03;;;13.00;96.90;;;;;;4835337;29;20538;-72
2020/12/22 01:49:20;;;;;;;5.90;3.73;;;13.00;97.00;;;;;;4837317;29;20046;-73
2020/12/22 01:51:48;;;;;;;5.43;3.47;;;13.00;97.00;;;;;;4835574;29;20502;-73
2020/12/22 01:54:16;;;;;;;5.37;3.37;;;13.00;97.00;;;;;;4843419;29;20088;-75
2020/12/22 01:56:43;;;;;;;5.10;3.37;;;13.00;97.30;;;;;;4826968;29;20106;-74
2020/12/22 01:59:10;;;;;;;6.10;3.57;;;13.10;97.10;;;;;;4827106;29;20470;-74
2020/12/22 02:01:37;;;;;;;5.87;3.67;;;13.00;97.00;;;;;;4826443;29;20503;-74
2020/12/22 02:04:07;;;;;;;4.77;2.97;;;13.10;97.00;;;;;;4843117;29;20860;-74
2020/12/22 02:06:34;;;;;;;5.10;3.00;;;13.10;97.10;;;;;;4826041;29;20072;-74
2020/12/22 02:09:04;;;;;;;4.40;2.63;;;13.10;97.10;;;;;;4825906;29;20053;-74
2020/12/22 02:11:32;;;;;;;3.60;2.00;;;13.10;97.10;;;;;;4841457;29;20057;-74
2020/12/22 02:14:01;;;;;;;3.03;1.80;;;13.10;97.10;;;;;;4825637;29;20042;-74
2020/12/22 02:16:27;;;;;;;3.53;2.03;;;13.10;97.00;;;;;;4841255;29;20098;-74
2020/12/22 02:18:54;;;;;;;3.57;2.20;;;13.10;97.10;;;;;;4811128;29;20400;-74
2020/12/22 02:21:21;;;;;;;3.87;2.30;;;13.20;97.10;;;;;;4843325;29;20042;-77
2020/12/22 02:23:49;;;;;;;4.17;2.30;;;13.20;97.10;;;;;;4842176;29;20054;-76
2020/12/22 02:26:25;;;;;;;3.83;2.20;;;13.10;97.10;;;;;;4824433;29;20194;-76
2020/12/22 02:28:53;;;;;;;3.43;1.87;;;13.20;97.10;;;;;;4841477;29;20463;-76
2020/12/22 02:31:23;;;;;;;4.17;2.40;;;13.20;97.10;;;;;;4826554;29;20045;-74
2020/12/22 02:33:50;;;;;;;3.73;2.20;;;13.20;97.10;;;;;;4841860;29;20054;-75
2020/12/22 02:36:17;;;;;;;3.67;1.90;;;13.20;97.20;;;;;;4842060;29;20042;-75
2020/12/22 02:38:43;;;;;;;3.70;2.30;;;13.20;97.10;;;;;;4842008;29;20448;-74
2020/12/22 02:41:10;;;;;;;3.10;1.70;;;13.20;97.10;;;;;;4840769;29;20103;-74
2020/12/22 02:43:37;;;;;;;3.67;2.13;;;13.20;97.10;;;;;;4810762;29;20181;-74
2020/12/22 02:46:05;;;;;;;3.93;2.13;;;13.20;97.10;;;;;;4841846;29;20457;-74
2020/12/22 02:48:32;;;;;;;3.23;1.53;;;13.20;97.40;;;;;;4841956;29;20075;-74
2020/12/22 02:50:59;;;;;;;3.37;2.07;;;13.20;97.20;;;;;;4840480;29;20057;-74
2020/12/22 02:53:26;;;;;;;4.07;1.97;;;13.20;97.10;;;;;;4810663;29;20102;-74
2020/12/22 02:55:53;;;;;;;3.53;2.03;;;13.30;97.20;;;;;;4825071;29;20045;-74
2020/12/22 02:58:20;;;;;;;3.57;1.97;;;13.20;97.20;;;;;;4839933;29;20046;-74
2020/12/22 03:00:46;;;;;;;2.97;1.67;;;13.30;97.20;;;;;;4825313;29;20380;-73
2020/12/22 03:03:13;;;;;;;3.03;1.90;;;13.30;97.20;;;;;;4839647;29;20406;-73
2020/12/22 03:05:40;;;;;;;3.47;1.93;;;13.30;97.20;;;;;;4824116;29;20046;-73
2020/12/22 03:08:09;;;;;;;3.10;1.87;;;13.30;97.20;;;;;;4841221;29;20065;-73
2020/12/22 03:10:36;;;;;;;3.97;2.20;;;13.20;97.20;;;;;;4841526;29;20132;-73
2020/12/22 03:13:04;;;;;;;4.10;2.30;;;13.30;97.20;;;;;;4841438;29;20054;-73
2020/12/22 03:15:31;;;;;;;4.77;3.03;;;13.30;97.20;;;;;;4840059;29;20053;-73
2020/12/22 03:17:58;;;;;;;5.43;3.30;;;13.30;97.20;;;;;;4816364;29;20073;-73
2020/12/22 03:20:24;;;;;;;5.53;3.70;;;13.30;97.20;;;;;;4837108;29;20130;-73
2020/12/22 03:22:51;;;;;;;6.07;4.07;;;13.30;97.20;;;;;;4840736;29;20046;-73
2020/12/22 03:25:18;;;;;;;6.33;4.27;;;13.30;97.30;;;;;;4839446;29;20049;-74
2020/12/22 03:27:45;;;;;;;5.30;3.33;;;13.30;97.30;;;;;;4824456;29;20057;-74
2020/12/22 03:30:14;;;;;;;6.43;4.47;;;13.30;97.30;;;;;;4839473;29;20593;-74
2020/12/22 03:32:41;;;;;;;6.23;4.20;;;13.30;97.30;;;;;;4859751;29;20046;-74
2020/12/22 03:35:09;;;;;;;6.37;4.00;;;13.20;97.20;;;;;;4859785;29;20049;-74
2020/12/22 03:37:37;;;;;;;6.30;3.57;;;13.20;97.20;;;;;;4857846;29;20041;-74
2020/12/22 03:40:09;;;;;;;4.37;3.10;;;13.30;97.30;;;;;;4858009;29;20052;-74
2020/12/22 03:42:36;;;;;;;4.73;2.80;;;13.30;97.20;;;;;;4830372;29;20121;-73
2020/12/22 03:45:05;;;;;;;4.17;2.80;;;13.20;97.20;;;;;;4859142;29;20045;-73
2020/12/22 03:47:32;;;;;;;6.53;2.43;;;13.20;97.20;;;;;;4859112;29;20839;-73
2020/12/22 03:50:18;;;;;;;3.80;2.43;;;13.20;97.20;;;;;;4859100;29;20042;-73
2020/12/22 03:52:44;;;;;;;3.13;1.90;;;13.20;97.20;;;;;;4827384;29;20194;-72
2020/12/22 03:55:11;;;;;;;4.17;2.40;;;13.20;97.20;;;;;;4841285;29;20045;-73
2020/12/22 03:57:38;;;;;;;4.07;2.60;;;13.20;97.20;;;;;;4858368;29;20052;-73
2020/12/22 04:00:06;;;;;;;2.70;1.70;;;13.20;97.20;;;;;;4859077;29;20045;-72
2020/12/22 04:02:34;;;;;;;3.83;2.17;;;13.10;97.20;;;;;;4858221;29;20110;-73
2020/12/22 04:05:00;;;;;;;4.73;2.37;;;13.10;97.20;;;;;;4834558;29;20045;-72
2020/12/22 04:07:27;;;;;;;3.97;2.13;;;13.10;97.20;;;;;;4856642;29;20105;-72
2020/12/22 04:09:53;;;;;;;3.40;2.00;;;13.10;97.20;;;;;;4841944;29;20080;-72
2020/12/22 04:12:20;;;;;;;3.93;2.43;;;13.10;97.20;;;;;;4842199;29;20052;-72
2020/12/22 04:14:47;;;;;;;3.20;2.07;;;13.10;97.20;;;;;;4857650;29;20077;-74
2020/12/22 04:17:13;;;;;;;4.17;2.30;;;13.10;97.20;;;;;;4858750;29;20055;-75
2020/12/22 04:19:40;;;;;;;3.43;2.07;;;13.10;97.20;;;;;;4842008;29;20052;-75
2020/12/22 04:22:06;;;;;;;3.73;2.40;;;13.10;97.20;;;;;;4827288;29;20120;-75
2020/12/22 04:24:34;;;;;;;3.80;2.20;;;13.10;97.20;;;;;;4841568;29;20069;-75
2020/12/22 04:27:00;;;;;;;4.00;1.63;;;13.10;97.20;;;;;;4853772;29;20426;-76
2020/12/22 04:29:27;;;;;;;4.30;1.87;;;13.10;97.20;;;;;;4833981;29;20080;-73
2020/12/22 04:31:53;;;;;;;3.47;1.80;;;13.10;97.20;;;;;;4859025;29;20046;-73
2020/12/22 04:34:20;;;;;;;3.00;1.70;;;13.10;97.20;;;;;;4858198;29;20041;-74
2020/12/22 04:36:47;;;;;;;2.43;1.50;;;13.00;97.10;;;;;;4842338;29;20049;-76
2020/12/22 04:39:13;;;;;;;6.40;1.87;;;13.00;97.10;;;;;;4841876;29;20053;-76
2020/12/22 04:41:47;;;;;;;3.13;1.77;;;13.00;97.20;;;;;;4857541;29;20042;-72
2020/12/22 04:44:16;;;;;;;3.40;1.83;;;13.00;97.20;;;;;;4858282;29;20390;-71
2020/12/22 04:46:50;;;;;;;3.37;1.43;;;12.90;97.20;;;;;;4857629;29;20401;-72
2020/12/22 04:49:22;;;;;;;4.70;2.10;;;12.90;97.20;;;;;;4841815;29;20041;-71
2020/12/22 04:51:50;;;;;;;3.67;1.97;;;12.90;97.20;;;;;;4842640;29;20037;-72
2020/12/22 04:54:32;;;;;;;5.00;2.00;;;12.90;97.50;;;;;;4858427;29;20053;-72
2020/12/22 04:56:59;;;;;;;4.77;2.90;;;12.90;97.20;;;;;;4838415;29;20105;-72
2020/12/22 04:59:28;;;;;;;3.80;2.27;;;12.90;97.20;;;;;;4844558;29;20049;-72
2020/12/22 05:01:57;;;;;;;5.27;3.00;;;12.90;97.20;;;;;;4856945;29;20078;-72
2020/12/22 05:04:24;;;;;;;4.93;2.80;;;12.90;97.20;;;;;;4858665;29;20502;-72
2020/12/22 05:06:50;;;;;;;5.50;3.37;;;12.90;97.20;;;;;;4861805;29;20105;-72
2020/12/22 05:09:17;;;;;;;4.93;2.70;;;12.90;97.20;;;;;;4861742;29;20579;-72
2020/12/22 05:11:43;;;;;;;3.70;2.57;;;12.90;97.20;;;;;;4861798;29;20041;-71
2020/12/22 05:14:10;;;;;;;4.30;2.73;;;12.90;97.20;;;;;;4845660;29;20460;-71
2020/12/22 05:16:37;;;;;;;4.53;2.00;;;12.90;97.20;;;;;;4829876;29;20037;-72
2020/12/22 05:19:04;;;;;;;4.83;1.80;;;12.90;97.10;;;;;;4861873;29;20045;-72
2020/12/22 05:21:35;;;;;;;3.63;1.83;;;12.90;97.10;;;;;;4860762;29;20197;-72
2020/12/22 05:24:05;;;;;;;4.00;2.03;;;12.90;97.10;;;;;;4861381;29;20034;-72
2020/12/22 05:26:33;;;;;;;4.67;1.40;;;12.90;97.10;;;;;;4861318;29;20490;-72
2020/12/22 05:29:11;;;;;;;4.20;1.90;;;12.90;97.10;;;;;;4829564;29;20066;-72
2020/12/22 05:31:49;;;;;;;3.47;1.63;;;12.90;97.10;;;;;;4842831;29;20129;-72
2020/12/22 05:34:21;;;;;;;3.20;1.70;;;12.90;97.10;;;;;;4842791;29;20041;-72
2020/12/22 05:36:47;;;;;;;3.40;1.80;;;12.90;97.10;;;;;;4842957;29;20081;-72
2020/12/22 05:39:17;;;;;;;3.60;2.20;;;12.80;97.00;;;;;;4826079;29;20046;-72
2020/12/22 05:41:44;;;;;;;2.97;1.63;;;12.80;97.00;;;;;;4842320;29;20049;-72
2020/12/22 05:44:10;;;;;;;4.17;2.33;;;12.80;97.00;;;;;;4842515;29;20098;-72
2020/12/22 05:46:39;;;;;;;3.73;2.43;;;12.80;97.00;;;;;;4826677;29;20134;-72
2020/12/22 05:49:07;;;;;;;5.70;2.50;;;12.80;97.10;;;;;;4826472;29;20106;-72
2020/12/22 05:51:37;;;;;;;5.50;2.90;;;12.80;97.10;;;;;;4842589;29;20042;-72
2020/12/22 05:54:13;;;;;;;9.27;3.03;;;12.80;97.00;;;;;;4842619;29;20434;-72
2020/12/22 05:56:40;;;;;;;5.03;2.63;;;12.80;97.00;;;;;;4842370;29;20050;-72
2020/12/22 05:59:20;;;;;;;4.53;2.43;;;12.80;97.00;;;;;;4840744;29;20061;-72
2020/12/22 06:01:47;;;;;;;4.97;2.20;;;12.80;96.90;;;;;;4842018;29;20351;-72
2020/12/22 06:04:17;;;;;;;3.83;1.60;;;12.90;97.00;;;;;;4842591;29;20179;-72
2020/12/22 06:06:45;;;;;;;5.13;1.53;;;12.80;96.90;;;;;;4825872;29;20050;-72
2020/12/22 06:09:12;;;;;;;2.63;1.10;;;12.80;96.80;;;;;;4842569;29;20058;-72
2020/12/22 06:11:39;;;;;;;3.10;1.00;;;12.80;96.80;;;;;;4841809;29;20045;-72
2020/12/22 06:14:06;;;;;;;3.30;1.33;;;12.80;96.80;;;;;;4825065;29;20129;-72
2020/12/22 06:16:33;;;;;;;6.57;1.30;;;12.80;96.80;;;;;;4825895;29;20042;-72
2020/12/22 06:19:00;;;;;;;7.63;1.50;;;12.80;96.70;;;;;;4810421;29;20106;-72
2020/12/22 06:21:27;;;;;;;2.97;1.53;;;12.80;96.70;;;;;;4840764;29;20046;-72
2020/12/22 06:23:55;;;;;;;7.93;2.80;;;12.90;96.70;;;;;;4816647;29;20047;-72
2020/12/22 06:26:22;;;;;;;4.90;3.10;;;12.90;96.70;;;;;;4840019;29;20145;-72
2020/12/22 06:28:48;;;;;;;6.73;3.90;;;12.90;96.70;;;;;;4840424;29;20563;-72
2020/12/22 06:31:24;;;;;;;5.97;3.80;;;12.90;96.60;;;;;;4841255;29;20046;-72
2020/12/22 06:33:52;;;;;;;7.70;4.13;;;12.90;96.60;;;;;;4841806;29;20050;-72
2020/12/22 06:36:20;;;;;;;7.30;4.60;;;12.90;96.60;;;;;;4841563;29;20125;-72
2020/12/22 06:39:01;;;;;;;8.23;5.70;;;12.90;96.60;;;;;;4822813;29;20129;-72
2020/12/22 06:41:34;;;;;;;14.30;8.10;;;12.90;96.60;;;;;;4831125;29;20054;-72
2020/12/22 06:44:26;;;;;;;10.70;6.25;;;13.00;96.60;;;;;;4824826;29;20069;-72
2020/12/22 06:46:57;;;;;;;12.43;8.27;;;13.00;96.60;;;;;;4840587;29;20046;-73
2020/12/22 06:49:45;;;;;;;12.10;8.00;;;13.00;96.50;;;;;;4824836;29;20503;-72
2020/12/22 06:52:38;;;;;;;14.27;8.65;;;13.00;96.50;;;;;;4825718;29;20140;-72
2020/12/22 06:55:11;;;;;;;13.13;8.93;;;13.00;96.50;;;;;;4840344;29;20058;-72
2020/12/22 06:57:44;;;;;;;16.73;10.13;;;13.00;96.50;;;;;;4839865;29;20042;-72
2020/12/22 07:00:26;;;;;;;16.97;10.07;;;13.00;96.40;;;;;;4840196;29;20042;-73
2020/12/22 07:03:16;;;;;;;15.70;9.93;;;13.00;96.30;;;;;;4829304;29;20044;-72
2020/12/22 07:05:45;;;;;;;12.47;8.67;;;13.00;96.30;;;;;;4825723;29;20046;-73
2020/12/22 07:08:17;;;;;;;14.37;8.93;;;13.00;96.30;;;;;;4819716;29;20045;-73
2020/12/22 07:10:52;;;;;;;14.73;7.73;;;13.00;96.30;;;;;;4841717;29;20060;-73
2020/12/22 07:13:19;;;;;;;15.33;7.30;;;13.00;96.20;;;;;;4838654;29;20102;-73
2020/12/22 07:15:47;;;;;;;12.17;6.53;;;13.00;96.20;;;;;;4840107;29;20562;-73
2020/12/22 07:18:30;;;;;;;10.27;5.73;;;13.00;96.50;;;;;;4809978;29;20403;-73
2020/12/22 07:20:58;;;;;;;10.32;5.53;;;13.00;96.10;;;;;;4841093;29;20054;-73
2020/12/22 07:23:25;;;;;;;9.87;4.70;;;13.00;96.10;;;;;;4841241;29;20050;-73
2020/12/22 07:25:51;;;;;;;6.43;4.30;;;13.00;96.00;;;;;;4825065;29;20049;-73
2020/12/22 07:28:18;;;;;;;10.83;4.10;;;12.90;95.90;;;;;;4840253;29;20140;-74
2020/12/22 07:30:45;;;;;;;7.33;3.47;;;13.00;95.90;;;;;;4841081;29;20058;-73
2020/12/22 07:33:12;;;;;;;5.50;2.70;;;13.00;95.80;;;;;;4810545;29;20049;-73
2020/12/22 07:35:39;;;;;;;8.83;2.50;;;12.90;95.70;;;;;;4824715;29;20456;-73
2020/12/22 07:38:10;;;;;;;6.20;2.57;;;13.00;95.70;;;;;;4840560;29;20098;-73
2020/12/22 07:40:42;;;;;;;4.00;1.47;;;13.00;95.50;;;;;;4841343;29;20056;-74
2020/12/22 07:43:13;;;;;;;6.47;1.60;;;12.90;95.50;;;;;;4810504;29;20042;-73
2020/12/22 07:45:47;;;;;;;6.93;1.30;;;12.90;95.40;;;;;;4836084;29;20060;-73
2020/12/22 07:48:14;;;;;;;10.87;1.60;;;12.90;95.50;;;;;;4825022;29;20061;-74
2020/12/22 07:50:40;;;;;;;4.83;1.10;;;12.90;95.40;;;;;;4838047;29;20094;-74
2020/12/22 07:53:07;;;;;;;4.93;0.87;;;12.90;95.40;;;;;;4841417;29;20049;-74
2020/12/22 07:55:40;;;;;;;3.40;0.60;;;12.90;95.30;;;;;;4822866;29;20198;-74
2020/12/22 07:58:08;;;;;;;3.60;0.70;;;12.90;95.30;;;;;;4838996;29;20144;-74
2020/12/22 08:00:35;;;;;;;6.27;1.20;;;12.90;95.30;;;;;;4818875;29;20082;-73
2020/12/22 08:03:16;;;;;;;1.60;0.73;;;12.90;95.30;;;;;;4824562;29;20360;-73
2020/12/22 08:06:02;;;;;;;4.60;0.80;;;12.80;95.30;;;;;;4831187;29;20130;-73
2020/12/22 08:08:31;;;;;;;3.73;0.60;;;12.80;95.30;;;;;;4839669;29;20448;-74
2020/12/22 08:10:58;;;;;;;3.47;0.43;;;12.80;95.20;;;;;;4825051;29;20046;-74
2020/12/22 08:13:29;;;;;;;4.80;0.60;;;12.80;95.10;;;;;;4841104;29;20121;-74
2020/12/22 08:16:00;;;;;;;3.83;0.67;;;12.80;95.10;;;;;;4840936;29;20057;-74
2020/12/22 08:18:30;;;;;;;6.73;0.70;;;12.70;95.00;;;;;;4840776;29;20448;-74
2020/12/22 08:20:59;;;;;;;2.73;0.50;;;12.60;95.00;;;;;;4841154;29;20106;-73
2020/12/22 08:23:28;;;;;;;5.50;0.97;;;12.60;95.10;;;;;;4840482;29;20530;-74
2020/12/22 08:25:56;;;;;;;3.60;0.53;;;12.50;95.10;;;;;;4824553;29;20568;-74
2020/12/22 08:28:26;;;;;;;3.37;0.97;;;12.50;95.20;;;;;;4842595;29;20068;-74
2020/12/22 08:30:54;;;;;;;3.10;0.63;;;12.50;95.30;;;;;;4813091;29;20053;-74
2020/12/22 08:33:21;;;;;;;5.70;1.00;;;12.50;95.30;;;;;;4844012;29;20042;-73
2020/12/22 08:35:50;;;;;;;5.93;0.90;;;12.50;95.30;;;;;;4829312;29;20042;-73
2020/12/22 08:38:24;;;;;;;7.57;1.07;;;12.50;95.40;;;;;;4844370;29;20074;-73
2020/12/22 08:40:55;;;;;;;5.40;0.60;;;12.50;95.40;;;;;;4838902;29;20113;-73
2020/12/22 08:43:24;;;;;;;7.07;0.53;;;12.50;95.40;;;;;;4844006;29;20435;-73
2020/12/22 08:45:51;;;;;;;6.20;0.87;;;12.50;95.40;;;;;;4843820;29;20042;-74
2020/12/22 08:48:18;;;;;;;9.17;1.37;;;12.50;95.40;;;;;;4827673;29;20491;-73
2020/12/22 08:50:49;;;;;;;6.00;0.90;;;12.50;95.40;;;;;;4827461;29;20054;-73
2020/12/22 08:53:34;;;;;;;5.33;1.40;;;12.50;95.40;;;;;;4814457;29;20046;-73
2020/12/22 08:56:09;;;;;;;7.40;0.80;;;12.60;95.30;;;;;;4843740;29;20042;-73
2020/12/22 08:58:54;;;;;;;4.43;0.97;;;12.50;95.30;;;;;;4839090;29;20805;-74
2020/12/22 09:01:23;;;;;;;4.97;1.23;;;12.50;95.40;;;;;;4814353;29;20038;-75
2020/12/22 09:03:52;;;;;;;3.43;1.00;;;12.50;95.50;;;;;;4827604;29;20046;-73
2020/12/22 09:06:31;;;;;;;4.33;0.70;;;12.50;95.50;;;;;;4826935;29;20050;-73
2020/12/22 09:09:17;;;;;;;4.73;0.93;;;12.40;95.50;;;;;;4827694;29;20057;-74
2020/12/22 09:11:46;;;;;;;3.67;0.77;;;12.40;95.60;;;;;;4815920;29;20053;-74
2020/12/22 09:14:16;;;;;;;5.40;1.00;;;12.40;95.60;;;;;;4827454;29;20042;-73
2020/12/22 09:16:56;;;;;;;3.90;0.63;;;12.40;95.60;;;;;;4842336;29;20052;-74
2020/12/22 09:19:47;;;;;;;4.97;1.17;;;12.40;95.60;;;;;;4812671;29;20050;-73
2020/12/22 09:22:22;;;;;;;2.70;0.87;;;12.40;95.60;;;;;;4842310;29;20050;-73
2020/12/22 09:24:53;;;;;;;7.73;1.63;;;12.40;95.60;;;;;;4826843;29;20317;-72
2020/12/22 09:27:33;;;;;;;6.93;1.23;;;12.40;95.60;;;;;;4843499;29;20399;-74
2020/12/22 09:30:00;;;;;;;7.23;1.63;;;12.40;95.60;;;;;;4843746;29;20038;-75
2020/12/22 09:32:29;;;;;;;8.87;1.27;;;12.40;95.60;;;;;;4812204;29;20045;-75
2020/12/22 09:34:55;;;;;;;6.63;1.60;;;12.50;95.50;;;;;;4812305;29;20081;-75
2020/12/22 09:37:26;;;;;;;5.77;1.77;;;12.40;95.40;;;;;;4812032;29;20444;-73
2020/12/22 09:39:53;;;;;;;10.90;1.70;;;12.50;95.40;;;;;;4841889;29;20076;-73
2020/12/22 09:42:22;;;;;;;5.00;1.27;;;12.50;95.40;;;;;;4842783;29;20042;-73
2020/12/22 09:44:49;;;;;;;5.97;1.23;;;12.40;95.40;;;;;;4828530;29;20095;-73
2020/12/22 09:47:16;;;;;;;5.97;1.00;;;12.40;95.40;;;;;;4826263;29;20156;-73
2020/12/22 09:49:45;;;;;;;8.57;1.30;;;12.50;95.50;;;;;;4843390;29;20510;-76
2020/12/22 09:52:11;;;;;;;7.67;2.27;;;12.50;95.50;;;;;;4825837;29;20053;-72
2020/12/22 09:54:38;;;;;;;9.43;1.47;;;12.50;95.50;;;;;;4842997;29;20069;-72
2020/12/22 09:57:05;;;;;;;8.20;1.10;;;12.50;95.60;;;;;;4843332;29;20050;-73
2020/12/22 09:59:32;;;;;;;7.20;1.20;;;12.50;95.50;;;;;;4842855;29;20072;-72
2020/12/22 10:01:59;;;;;;;4.67;1.33;;;12.50;95.50;;;;;;4802611;29;20046;-75
2020/12/22 10:04:26;;;;;;;10.97;1.83;;;12.50;95.50;;;;;;4826891;29;20058;-74
2020/12/22 10:06:52;;;;;;;5.60;1.30;;;12.50;95.50;;;;;;4826676;29;20119;-74
2020/12/22 10:09:19;;;;;;;9.13;1.30;;;12.50;95.40;;;;;;4842837;29;20498;-76
2020/12/22 10:11:46;;;;;;;5.20;1.37;;;12.60;95.50;;;;;;4811909;29;20106;-75
2020/12/22 10:14:13;;;;;;;6.13;1.27;;;12.60;95.50;;;;;;4827118;29;20091;-75
2020/12/22 10:16:40;;;;;;;9.23;1.80;;;12.60;95.50;;;;;;4826470;29;20065;-74
2020/12/22 10:19:10;;;;;;;5.20;1.67;;;12.60;95.50;;;;;;4826718;29;20042;-75
2020/12/22 10:21:37;;;;;;;7.67;1.47;;;12.60;95.40;;;;;;4827167;29;20099;-75
2020/12/22 10:24:06;;;;;;;4.83;1.47;;;12.60;95.40;;;;;;4843605;29;20050;-75
2020/12/22 10:26:34;;;;;;;6.13;1.47;;;12.70;95.50;;;;;;4843360;29;20098;-75
2020/12/22 10:29:00;;;;;;;6.33;1.43;;;12.60;95.40;;;;;;4817561;29;20112;-75
2020/12/22 10:31:32;;;;;;;6.80;1.43;;;12.70;95.40;;;;;;4837574;29;20053;-75
2020/12/22 10:33:59;;;;;;;5.70;1.90;;;12.60;95.40;;;;;;4811772;29;20042;-75
2020/12/22 10:36:28;;;;;;;7.00;1.67;;;12.70;95.50;;;;;;4826723;29;20077;-75
2020/12/22 10:38:56;;;;;;;6.03;1.73;;;12.60;95.40;;;;;;4826779;29;20054;-75
2020/12/22 10:41:24;;;;;;;6.70;1.60;;;12.60;95.40;;;;;;4826623;29;20046;-75
2020/12/22 10:43:52;;;;;;;6.30;2.70;;;12.60;95.40;;;;;;4843296;29;20045;-76
2020/12/22 10:46:18;;;;;;;6.63;2.10;;;12.60;95.50;;;;;;4843371;29;20060;-75
2020/12/22 10:48:46;;;;;;;5.33;1.90;;;12.60;95.40;;;;;;4841889;29;20046;-75
2020/12/22 10:51:13;;;;;;;7.00;1.53;;;12.50;95.40;;;;;;4842497;29;20086;-76
2020/12/22 10:53:40;;;;;;;5.83;1.93;;;12.50;95.50;;;;;;4820593;29;20122;-75
2020/12/22 10:56:18;;;;;;;7.20;1.90;;;12.50;95.60;;;;;;4822025;29;20125;-75
2020/12/22 10:58:44;;;;;;;8.40;2.20;;;12.50;95.60;;;;;;4833414;29;20046;-75
2020/12/22 11:01:13;;;;;;;9.37;2.43;;;12.40;95.60;;;;;;4840331;29;20082;-75
2020/12/22 11:03:41;;;;;;;5.37;2.23;;;12.40;95.70;;;;;;4842397;29;20167;-74
2020/12/22 11:08:50;;;;;;;7.10;2.80;;;12.30;95.70;;;;;;4828842;29;20046;-76
2020/12/22 11:11:18;;;;;;;9.07;2.63;;;12.40;95.80;;;;;;4842477;29;20137;-76
2020/12/22 11:13:45;;;;;;;5.97;2.93;;;12.40;95.80;;;;;;4811433;29;20507;-75
2020/12/22 11:16:12;;;;;;;13.27;2.93;;;12.30;95.80;;;;;;4825858;29;20413;-75
2020/12/22 11:18:40;;;;;;;9.73;2.70;;;12.40;95.80;;;;;;4811005;29;20499;-75
2020/12/22 11:21:12;;;;;;;11.30;3.80;;;12.30;95.80;;;;;;4842605;29;20049;-75
2020/12/22 11:23:44;;;;;;;8.30;3.07;;;12.40;95.80;;;;;;4842420;29;20045;-75
2020/12/22 11:26:20;;;;;;;6.67;2.57;;;12.30;95.80;;;;;;4810802;29;20060;-75
2020/12/22 11:28:47;;;;;;;5.03;2.30;;;12.30;95.80;;;;;;4826557;29;20057;-76
2020/12/22 11:31:14;;;;;;;7.73;2.23;;;12.30;95.80;;;;;;4810689;29;20141;-76
2020/12/22 11:33:40;;;;;;;5.13;1.53;;;12.30;95.70;;;;;;4814851;29;20058;-75
2020/12/22 11:36:15;;;;;;;3.53;1.33;;;12.20;95.70;;;;;;4811285;29;20056;-77
2020/12/22 11:38:47;;;;;;;2.63;1.07;;;12.20;95.70;;;;;;4839786;29;20058;-77
2020/12/22 11:41:29;;;;;;;2.73;1.20;;;12.20;95.80;;;;;;4842259;29;20049;-77
2020/12/22 11:43:56;;;;;;;3.53;0.70;;;12.20;95.80;;;;;;4813079;29;20054;-77
2020/12/22 11:46:22;;;;;;;2.80;0.87;;;12.20;95.90;;;;;;4810817;29;20050;-77
2020/12/22 11:48:50;;;;;;;2.57;0.80;;;12.10;95.70;;;;;;4802983;29;20077;-77
2020/12/22 11:51:18;;;;;;;1.73;0.53;;;12.10;96.00;;;;;;4813978;29;20042;-77
2020/12/22 11:53:45;;;;;;;3.10;0.50;;;12.10;95.80;;;;;;4841524;29;20081;-76
2020/12/22 11:56:11;;;;;;;1.57;0.50;;;12.00;95.80;;;;;;4842268;29;20133;-77
2020/12/22 11:58:40;;;;;;;1.00;0.50;;;11.90;95.70;;;;;;4842337;29;20100;-77
2020/12/22 12:01:32;;;;;;;1.60;0.50;;;11.80;95.60;;;;;;4798113;29;20042;-80
2020/12/22 12:04:06;;;;;;;3.40;0.53;;;11.60;95.50;;;;;;4825782;29;20102;-76
2020/12/22 12:06:32;;;;;;;1.17;0.33;;;11.60;95.70;;;;;;4810305;29;20046;-76
2020/12/22 12:08:59;;;;;;;1.00;0.37;;;11.50;95.80;;;;;;4826564;29;20161;-76
2020/12/22 12:11:26;;;;;;;1.40;0.40;;;11.40;95.70;;;;;;4809780;29;20050;-74
2020/12/22 12:13:55;;;;;;;2.37;0.43;;;11.40;95.90;;;;;;4825313;29;20056;-74
2020/12/22 12:16:23;;;;;;;2.57;0.40;;;11.30;95.70;;;;;;4831109;29;20245;-74
2020/12/22 12:18:59;;;;;;;1.83;0.70;;;11.30;95.90;;;;;;4804971;29;20042;-74
2020/12/22 12:21:26;;;;;;;2.13;0.60;;;11.30;95.80;;;;;;4824829;29;20046;-74
2020/12/22 12:23:52;;;;;;;1.60;0.50;;;11.30;95.80;;;;;;4841251;29;20121;-74
2020/12/22 12:26:23;;;;;;;1.50;0.50;;;11.20;95.80;;;;;;4824806;29;20077;-74
2020/12/22 12:28:50;;;;;;;1.27;0.50;;;11.20;95.80;;;;;;4839329;29;20082;-75
2020/12/22 12:31:21;;;;;;;1.50;0.80;;;11.20;95.90;;;;;;4841272;29;20041;-74
2020/12/22 12:33:47;;;;;;;2.37;0.70;;;11.20;95.90;;;;;;4840957;29;20049;-74
2020/12/22 12:36:14;;;;;;;2.13;0.80;;;11.20;95.90;;;;;;4810069;29;20038;-75
2020/12/22 12:38:41;;;;;;;2.57;0.70;;;11.20;96.00;;;;;;4840636;29;20108;-75
2020/12/22 12:41:14;;;;;;;1.87;0.80;;;11.20;96.00;;;;;;4824824;29;20085;-74
2020/12/22 12:43:41;;;;;;;1.50;0.80;;;11.20;95.80;;;;;;4841596;29;20066;-76
2020/12/22 12:46:09;;;;;;;3.13;1.10;;;11.20;95.90;;;;;;4840266;29;20443;-77
2020/12/22 12:48:36;;;;;;;2.10;0.90;;;11.20;95.90;;;;;;4841577;29;20046;-76
2020/12/22 12:51:10;;;;;;;4.60;1.93;;;11.20;95.80;;;;;;4838006;29;20047;-75
2020/12/22 12:53:40;;;;;;;3.50;1.70;;;11.20;95.70;;;;;;4820049;29;20049;-76
2020/12/22 12:56:14;;;;;;;2.87;1.30;;;11.20;95.80;;;;;;4824945;29;20050;-75
2020/12/22 12:58:41;;;;;;;1.90;1.10;;;11.20;95.80;;;;;;4841329;29;20377;-76